sensor_id;sensor_type;location;lat;lon;timestamp;temperature;humidity
24011;DHT22;12217;50.792;4.372;2023-02-28T00:00:07;5.90;99.90
24011;DHT22;12217;50.792;4.372;2023-02-28T00:02:43;5.90;99.90
24011;DHT22;12217;50.792;4.372;2023-02-28T00:05:11;5.80;99.90
24011;DHT22;12217;50.792;4.372;2023-02-28T00:07:37;5.80;99.90
24011;DHT22;12217;50.792;4.372;2023-02-28T00:10:04;5.90;99.90
24011;DHT22;12217;50.792;4.372;2023-02-28T00:12:31;5.80;99.90
24011;DHT22;12217;50.792;4.372;2023-02-28T00:14:57;5.80;99.90
24011;DHT22;12217;50.792;4.372;2023-02-28T00:17:22;5.70;99.90
24011;DHT22;12217;50.792;4.372;2023-02-28T00:19:49;5.70;99.90
24011;DHT22;12217;50.792;4.372;2023-02-28T00:22:19;5.70;99.90
24011;DHT22;12217;50.792;4.372;2023-02-28T00:24:45;5.60;99.90
24011;DHT22;12217;50.792;4.372;2023-02-28T00:27:11;5.70;99.90
24011;DHT22;12217;50.792;4.372;2023-02-28T00:29:37;5.60;99.90
24011;DHT22;12217;50.792;4.372;2023-02-28T00:32:04;5.50;99.90
24011;DHT22;12217;50.792;4.372;2023-02-28T00:34:29;5.60;99.90
24011;DHT22;12217;50.792;4.372;2023-02-28T00:36:55;5.60;99.90
24011;DHT22;12217;50.792;4.372;2023-02-28T00:39:21;5.50;99.90
24011;DHT22;12217;50.792;4.372;2023-02-28T00:41:46;5.40;99.90
24011;DHT22;12217;50.792;4.372;2023-02-28T00:44:12;5.30;99.90
24011;DHT22;12217;50.792;4.372;2023-02-28T00:46:38;5.40;99.90
24011;DHT22;12217;50.792;4.372;2023-02-28T00:49:03;5.40;99.90
24011;DHT22;12217;50.792;4.372;2023-02-28T00:51:29;5.40;99.90
24011;DHT22;12217;50.792;4.372;2023-02-28T00:53:55;5.40;99.90
24011;DHT22;12217;50.792;4.372;2023-02-28T00:56:20;5.30;99.90
24011;DHT22;12217;50.792;4.372;2023-02-28T00:58:46;5.30;99.90
24011;DHT22;12217;50.792;4.372;2023-02-28T01:01:11;5.30;99.90
24011;DHT22;12217;50.792;4.372;2023-02-28T01:03:37;5.40;99.90
24011;DHT22;12217;50.792;4.372;2023-02-28T01:06:04;5.30;99.90
24011;DHT22;12217;50.792;4.372;2023-02-28T01:08:29;5.30;99.90
24011;DHT22;12217;50.792;4.372;2023-02-28T01:10:55;5.30;99.90
24011;DHT22;12217;50.792;4.372;2023-02-28T01:13:21;5.30;99.90
24011;DHT22;12217;50.792;4.372;2023-02-28T01:15:54;5.20;99.90
24011;DHT22;12217;50.792;4.372;2023-02-28T01:18:20;5.10;99.90
24011;DHT22;12217;50.792;4.372;2023-02-28T01:20:46;5.20;99.90
24011;DHT22;12217;50.792;4.372;2023-02-28T01:23:12;5.10;99.90
24011;DHT22;12217;50.792;4.372;2023-02-28T01:25:38;5.10;99.90
24011;DHT22;12217;50.792;4.372;2023-02-28T01:28:04;5.10;99.90
24011;DHT22;12217;50.792;4.372;2023-02-28T01:30:30;5.00;99.90
24011;DHT22;12217;50.792;4.372;2023-02-28T01:32:56;5.10;99.90
24011;DHT22;12217;50.792;4.372;2023-02-28T01:35:21;5.10;99.90
24011;DHT22;12217;50.792;4.372;2023-02-28T01:37:47;5.00;99.90
24011;DHT22;12217;50.792;4.372;2023-02-28T01:40:13;5.10;99.90
24011;DHT22;12217;50.792;4.372;2023-02-28T01:42:39;5.10;99.90
24011;DHT22;12217;50.792;4.372;2023-02-28T01:47:51;4.90;99.90
24011;DHT22;12217;50.792;4.372;2023-02-28T01:50:21;4.90;99.90
24011;DHT22;12217;50.792;4.372;2023-02-28T01:52:48;4.90;99.90
24011;DHT22;12217;50.792;4.372;2023-02-28T01:55:17;4.90;99.90
24011;DHT22;12217;50.792;4.372;2023-02-28T01:57:48;4.90;99.90
24011;DHT22;12217;50.792;4.372;2023-02-28T02:00:17;4.90;99.90
24011;DHT22;12217;50.792;4.372;2023-02-28T02:02:47;4.80;99.90
24011;DHT22;12217;50.792;4.372;2023-02-28T02:05:17;4.90;99.90
24011;DHT22;12217;50.792;4.372;2023-02-28T02:07:46;4.90;99.90
24011;DHT22;12217;50.792;4.372;2023-02-28T02:10:19;4.90;99.90
24011;DHT22;12217;50.792;4.372;2023-02-28T02:17:53;4.90;99.90
24011;DHT22;12217;50.792;4.372;2023-02-28T02:20:28;4.80;99.90
24011;DHT22;12217;50.792;4.372;2023-02-28T02:23:08;4.80;99.90
24011;DHT22;12217;50.792;4.372;2023-02-28T02:25:59;4.70;99.90
24011;DHT22;12217;50.792;4.372;2023-02-28T02:31:33;4.70;99.90
24011;DHT22;12217;50.792;4.372;2023-02-28T02:34:29;4.70;99.90
24011;DHT22;12217;50.792;4.372;2023-02-28T02:37:20;4.70;99.90
24011;DHT22;12217;50.792;4.372;2023-02-28T02:42:23;4.60;99.90
24011;DHT22;12217;50.792;4.372;2023-02-28T02:45:07;4.70;99.90
24011;DHT22;12217;50.792;4.372;2023-02-28T02:47:36;4.60;99.90
24011;DHT22;12217;50.792;4.372;2023-02-28T02:50:05;4.60;99.90
24011;DHT22;12217;50.792;4.372;2023-02-28T02:52:43;4.60;99.90
24011;DHT22;12217;50.792;4.372;2023-02-28T02:55:11;4.40;99.90
24011;DHT22;12217;50.792;4.372;2023-02-28T02:58:03;4.40;99.90
24011;DHT22;12217;50.792;4.372;2023-02-28T03:00:34;4.40;99.90
24011;DHT22;12217;50.792;4.372;2023-02-28T03:03:01;4.40;99.90
24011;DHT22;12217;50.792;4.372;2023-02-28T03:05:40;4.40;99.90
24011;DHT22;12217;50.792;4.372;2023-02-28T03:08:07;4.40;99.90
24011;DHT22;12217;50.792;4.372;2023-02-28T03:10:44;4.40;99.90
24011;DHT22;12217;50.792;4.372;2023-02-28T03:16:02;4.40;99.90
24011;DHT22;12217;50.792;4.372;2023-02-28T03:21:36;4.30;99.90
24011;DHT22;12217;50.792;4.372;2023-02-28T03:24:19;4.30;99.90
24011;DHT22;12217;50.792;4.372;2023-02-28T03:26:56;4.40;99.90
24011;DHT22;12217;50.792;4.372;2023-02-28T03:29:34;4.30;99.90
24011;DHT22;12217;50.792;4.372;2023-02-28T03:32:06;4.30;99.90
24011;DHT22;12217;50.792;4.372;2023-02-28T03:34:42;4.20;99.90
24011;DHT22;12217;50.792;4.372;2023-02-28T03:37:12;4.20;99.90
24011;DHT22;12217;50.792;4.372;2023-02-28T03:40:03;4.20;99.90
24011;DHT22;12217;50.792;4.372;2023-02-28T03:42:35;4.20;99.90
24011;DHT22;12217;50.792;4.372;2023-02-28T03:45:15;4.20;99.90
24011;DHT22;12217;50.792;4.372;2023-02-28T03:47:52;4.20;99.90
24011;DHT22;12217;50.792;4.372;2023-02-28T03:50:22;4.20;99.90
24011;DHT22;12217;50.792;4.372;2023-02-28T03:53:17;4.20;99.90
24011;DHT22;12217;50.792;4.372;2023-02-28T03:55:51;4.20;99.90
24011;DHT22;12217;50.792;4.372;2023-02-28T03:58:32;4.20;99.90
24011;DHT22;12217;50.792;4.372;2023-02-28T04:01:08;4.10;99.90
24011;DHT22;12217;50.792;4.372;2023-02-28T04:03:36;4.10;99.90
24011;DHT22;12217;50.792;4.372;2023-02-28T04:06:03;4.20;99.90
24011;DHT22;12217;50.792;4.372;2023-02-28T04:08:29;4.10;99.90
24011;DHT22;12217;50.792;4.372;2023-02-28T04:11:04;4.10;99.90
24011;DHT22;12217;50.792;4.372;2023-02-28T04:13:32;4.00;99.90
24011;DHT22;12217;50.792;4.372;2023-02-28T04:15:57;4.10;99.90
24011;DHT22;12217;50.792;4.372;2023-02-28T04:18:23;4.00;99.90
24011;DHT22;12217;50.792;4.372;2023-02-28T04:20:48;4.00;99.90
24011;DHT22;12217;50.792;4.372;2023-02-28T04:23:14;4.00;99.90
24011;DHT22;12217;50.792;4.372;2023-02-28T04:25:39;3.90;99.90
24011;DHT22;12217;50.792;4.372;2023-02-28T04:28:06;3.90;99.90
24011;DHT22;12217;50.792;4.372;2023-02-28T04:30:32;3.80;99.90
24011;DHT22;12217;50.792;4.372;2023-02-28T04:32:58;3.80;99.90
24011;DHT22;12217;50.792;4.372;2023-02-28T04:35:23;3.90;99.90
24011;DHT22;12217;50.792;4.372;2023-02-28T04:37:49;3.90;99.90
24011;DHT22;12217;50.792;4.372;2023-02-28T04:40:15;3.90;99.90
24011;DHT22;12217;50.792;4.372;2023-02-28T04:42:41;3.90;99.90
24011;DHT22;12217;50.792;4.372;2023-02-28T04:45:07;3.80;99.90
24011;DHT22;12217;50.792;4.372;2023-02-28T04:47:35;3.80;99.90
24011;DHT22;12217;50.792;4.372;2023-02-28T04:50:01;3.60;99.90
24011;DHT22;12217;50.792;4.372;2023-02-28T04:52:27;3.60;99.90
24011;DHT22;12217;50.792;4.372;2023-02-28T04:54:53;3.70;99.90
24011;DHT22;12217;50.792;4.372;2023-02-28T04:57:18;3.80;99.90
24011;DHT22;12217;50.792;4.372;2023-02-28T04:59:44;3.70;99.90
24011;DHT22;12217;50.792;4.372;2023-02-28T05:02:09;3.70;99.90
24011;DHT22;12217;50.792;4.372;2023-02-28T05:04:36;3.70;99.90
24011;DHT22;12217;50.792;4.372;2023-02-28T05:07:02;3.80;99.90
24011;DHT22;12217;50.792;4.372;2023-02-28T05:09:28;3.80;99.90
24011;DHT22;12217;50.792;4.372;2023-02-28T05:11:54;3.80;99.90
24011;DHT22;12217;50.792;4.372;2023-02-28T05:14:20;3.70;99.90
24011;DHT22;12217;50.792;4.372;2023-02-28T05:16:46;3.70;99.90
24011;DHT22;12217;50.792;4.372;2023-02-28T05:19:11;3.80;99.90
24011;DHT22;12217;50.792;4.372;2023-02-28T05:21:40;3.80;99.90
24011;DHT22;12217;50.792;4.372;2023-02-28T05:24:10;3.70;99.90
24011;DHT22;12217;50.792;4.372;2023-02-28T05:26:41;3.70;99.90
24011;DHT22;12217;50.792;4.372;2023-02-28T05:29:08;3.80;99.90
24011;DHT22;12217;50.792;4.372;2023-02-28T05:31:35;3.80;99.90
24011;DHT22;12217;50.792;4.372;2023-02-28T05:34:02;3.80;99.90
24011;DHT22;12217;50.792;4.372;2023-02-28T05:36:29;3.80;99.90
24011;DHT22;12217;50.792;4.372;2023-02-28T05:38:55;3.80;99.90
24011;DHT22;12217;50.792;4.372;2023-02-28T05:41:21;3.80;99.90
24011;DHT22;12217;50.792;4.372;2023-02-28T05:43:47;3.90;99.90
24011;DHT22;12217;50.792;4.372;2023-02-28T05:46:13;3.90;99.90
24011;DHT22;12217;50.792;4.372;2023-02-28T05:48:40;3.90;99.90
24011;DHT22;12217;50.792;4.372;2023-02-28T05:51:06;3.90;99.90
24011;DHT22;12217;50.792;4.372;2023-02-28T05:53:32;3.80;99.90
24011;DHT22;12217;50.792;4.372;2023-02-28T05:55:58;3.90;99.90
24011;DHT22;12217;50.792;4.372;2023-02-28T05:58:24;3.90;99.90
24011;DHT22;12217;50.792;4.372;2023-02-28T06:00:56;3.80;99.90
24011;DHT22;12217;50.792;4.372;2023-02-28T06:03:23;3.90;99.90
24011;DHT22;12217;50.792;4.372;2023-02-28T06:05:48;3.90;99.90
24011;DHT22;12217;50.792;4.372;2023-02-28T06:08:15;3.80;99.90
24011;DHT22;12217;50.792;4.372;2023-02-28T06:10:41;3.80;99.90
24011;DHT22;12217;50.792;4.372;2023-02-28T06:13:06;3.90;99.90
24011;DHT22;12217;50.792;4.372;2023-02-28T06:15:32;3.90;99.90
24011;DHT22;12217;50.792;4.372;2023-02-28T06:17:58;4.00;99.90
24011;DHT22;12217;50.792;4.372;2023-02-28T06:20:25;4.00;99.90
24011;DHT22;12217;50.792;4.372;2023-02-28T06:22:57;4.00;99.90
24011;DHT22;12217;50.792;4.372;2023-02-28T06:25:27;4.00;99.90
24011;DHT22;12217;50.792;4.372;2023-02-28T06:27:54;4.00;99.90
24011;DHT22;12217;50.792;4.372;2023-02-28T06:30:20;4.00;99.90
24011;DHT22;12217;50.792;4.372;2023-02-28T06:32:50;4.00;99.90
24011;DHT22;12217;50.792;4.372;2023-02-28T06:35:16;4.00;99.90
24011;DHT22;12217;50.792;4.372;2023-02-28T06:37:41;4.00;99.90
24011;DHT22;12217;50.792;4.372;2023-02-28T06:40:10;4.10;99.90
24011;DHT22;12217;50.792;4.372;2023-02-28T06:42:35;4.10;99.90
24011;DHT22;12217;50.792;4.372;2023-02-28T06:45:01;4.20;99.90
24011;DHT22;12217;50.792;4.372;2023-02-28T06:47:30;4.20;99.90
24011;DHT22;12217;50.792;4.372;2023-02-28T06:49:55;4.20;99.90
24011;DHT22;12217;50.792;4.372;2023-02-28T06:52:21;4.20;99.90
24011;DHT22;12217;50.792;4.372;2023-02-28T06:54:47;4.20;99.90
24011;DHT22;12217;50.792;4.372;2023-02-28T06:57:27;4.30;99.90
24011;DHT22;12217;50.792;4.372;2023-02-28T06:59:55;4.30;99.90
24011;DHT22;12217;50.792;4.372;2023-02-28T07:02:21;4.30;99.90
24011;DHT22;12217;50.792;4.372;2023-02-28T07:04:47;4.40;99.90
24011;DHT22;12217;50.792;4.372;2023-02-28T07:07:12;4.40;99.90
24011;DHT22;12217;50.792;4.372;2023-02-28T07:09:38;4.40;99.90
24011;DHT22;12217;50.792;4.372;2023-02-28T07:12:04;4.40;99.90
24011;DHT22;12217;50.792;4.372;2023-02-28T07:14:29;4.50;99.90
24011;DHT22;12217;50.792;4.372;2023-02-28T07:16:55;4.50;99.90
24011;DHT22;12217;50.792;4.372;2023-02-28T07:19:21;4.60;99.90
24011;DHT22;12217;50.792;4.372;2023-02-28T07:21:46;4.70;99.90
24011;DHT22;12217;50.792;4.372;2023-02-28T07:24:12;4.80;99.90
24011;DHT22;12217;50.792;4.372;2023-02-28T07:26:41;4.70;99.90
24011;DHT22;12217;50.792;4.372;2023-02-28T07:29:06;4.80;99.90
24011;DHT22;12217;50.792;4.372;2023-02-28T07:31:32;4.80;99.90
24011;DHT22;12217;50.792;4.372;2023-02-28T07:33:58;4.90;99.90
24011;DHT22;12217;50.792;4.372;2023-02-28T07:36:23;4.90;99.90
24011;DHT22;12217;50.792;4.372;2023-02-28T07:38:49;5.00;99.90
24011;DHT22;12217;50.792;4.372;2023-02-28T07:41:20;4.90;99.90
24011;DHT22;12217;50.792;4.372;2023-02-28T07:43:46;5.00;99.90
24011;DHT22;12217;50.792;4.372;2023-02-28T07:46:13;5.00;99.90
24011;DHT22;12217;50.792;4.372;2023-02-28T07:48:43;5.10;99.90
24011;DHT22;12217;50.792;4.372;2023-02-28T07:51:09;5.20;99.90
24011;DHT22;12217;50.792;4.372;2023-02-28T07:53:34;5.20;99.90
24011;DHT22;12217;50.792;4.372;2023-02-28T07:56:02;5.30;99.90
24011;DHT22;12217;50.792;4.372;2023-02-28T07:58:29;5.30;99.90
24011;DHT22;12217;50.792;4.372;2023-02-28T08:00:55;5.50;99.90
24011;DHT22;12217;50.792;4.372;2023-02-28T08:03:22;5.50;99.90
24011;DHT22;12217;50.792;4.372;2023-02-28T08:05:49;5.50;99.90
24011;DHT22;12217;50.792;4.372;2023-02-28T08:08:16;5.50;99.90
24011;DHT22;12217;50.792;4.372;2023-02-28T08:10:43;5.60;99.90
24011;DHT22;12217;50.792;4.372;2023-02-28T08:13:09;5.70;99.90
24011;DHT22;12217;50.792;4.372;2023-02-28T08:15:35;5.70;99.90
24011;DHT22;12217;50.792;4.372;2023-02-28T08:18:02;5.70;99.90
24011;DHT22;12217;50.792;4.372;2023-02-28T08:20:27;5.90;99.90
24011;DHT22;12217;50.792;4.372;2023-02-28T08:22:53;5.90;99.90
24011;DHT22;12217;50.792;4.372;2023-02-28T08:25:19;5.90;99.90
24011;DHT22;12217;50.792;4.372;2023-02-28T08:27:45;6.00;99.90
24011;DHT22;12217;50.792;4.372;2023-02-28T08:30:12;6.00;99.90
24011;DHT22;12217;50.792;4.372;2023-02-28T08:32:38;5.80;99.90
24011;DHT22;12217;50.792;4.372;2023-02-28T08:35:05;5.60;99.90
24011;DHT22;12217;50.792;4.372;2023-02-28T08:37:31;5.70;99.90
24011;DHT22;12217;50.792;4.372;2023-02-28T08:39:56;5.80;99.90
24011;DHT22;12217;50.792;4.372;2023-02-28T08:42:22;5.90;99.90
24011;DHT22;12217;50.792;4.372;2023-02-28T08:44:48;6.10;99.90
24011;DHT22;12217;50.792;4.372;2023-02-28T08:47:13;6.20;99.90
24011;DHT22;12217;50.792;4.372;2023-02-28T08:49:39;6.10;99.90
24011;DHT22;12217;50.792;4.372;2023-02-28T08:52:05;6.00;99.90
24011;DHT22;12217;50.792;4.372;2023-02-28T08:54:31;6.20;99.90
24011;DHT22;12217;50.792;4.372;2023-02-28T08:56:58;6.40;99.90
24011;DHT22;12217;50.792;4.372;2023-02-28T08:59:24;6.50;99.90
24011;DHT22;12217;50.792;4.372;2023-02-28T09:01:50;6.70;99.90
24011;DHT22;12217;50.792;4.372;2023-02-28T09:04:15;6.90;99.90
24011;DHT22;12217;50.792;4.372;2023-02-28T09:06:41;7.10;99.90
24011;DHT22;12217;50.792;4.372;2023-02-28T09:09:07;7.00;99.90
24011;DHT22;12217;50.792;4.372;2023-02-28T09:11:34;7.00;99.90
24011;DHT22;12217;50.792;4.372;2023-02-28T09:14:00;7.00;99.90
24011;DHT22;12217;50.792;4.372;2023-02-28T09:16:29;7.20;99.90
24011;DHT22;12217;50.792;4.372;2023-02-28T09:18:54;7.10;99.90
24011;DHT22;12217;50.792;4.372;2023-02-28T09:21:20;6.90;99.90
24011;DHT22;12217;50.792;4.372;2023-02-28T09:23:48;6.90;99.90
24011;DHT22;12217;50.792;4.372;2023-02-28T09:26:15;6.70;99.90
24011;DHT22;12217;50.792;4.372;2023-02-28T09:28:41;7.00;99.90
24011;DHT22;12217;50.792;4.372;2023-02-28T09:31:12;7.20;99.90
24011;DHT22;12217;50.792;4.372;2023-02-28T09:33:38;7.30;99.90
24011;DHT22;12217;50.792;4.372;2023-02-28T09:36:04;7.60;99.90
24011;DHT22;12217;50.792;4.372;2023-02-28T09:38:30;7.80;99.30
24011;DHT22;12217;50.792;4.372;2023-02-28T09:40:59;7.70;98.10
24011;DHT22;12217;50.792;4.372;2023-02-28T09:43:34;7.80;98.00
24011;DHT22;12217;50.792;4.372;2023-02-28T09:46:33;7.90;97.00
24011;DHT22;12217;50.792;4.372;2023-02-28T09:49:16;8.00;95.60
24011;DHT22;12217;50.792;4.372;2023-02-28T09:54:21;8.10;93.00
24011;DHT22;12217;50.792;4.372;2023-02-28T09:57:05;8.00;93.30
24011;DHT22;12217;50.792;4.372;2023-02-28T10:04:57;9.10;99.20
24011;DHT22;12217;50.792;4.372;2023-02-28T10:08:37;9.40;98.00
24011;DHT22;12217;50.792;4.372;2023-02-28T10:10:46;9.80;97.00
24011;DHT22;12217;50.792;4.372;2023-02-28T10:13:35;10.20;93.20
24011;DHT22;12217;50.792;4.372;2023-02-28T10:16:10;10.40;88.90
24011;DHT22;12217;50.792;4.372;2023-02-28T10:18:52;10.40;85.00
24011;DHT22;12217;50.792;4.372;2023-02-28T10:21:26;10.20;82.20
24011;DHT22;12217;50.792;4.372;2023-02-28T10:23:59;10.00;80.10
24011;DHT22;12217;50.792;4.372;2023-02-28T10:26:28;10.00;81.20
24011;DHT22;12217;50.792;4.372;2023-02-28T10:28:55;10.00;78.90
24011;DHT22;12217;50.792;4.372;2023-02-28T10:31:21;9.60;75.10
24011;DHT22;12217;50.792;4.372;2023-02-28T10:33:47;9.20;76.50
24011;DHT22;12217;50.792;4.372;2023-02-28T10:36:18;9.10;74.30
24011;DHT22;12217;50.792;4.372;2023-02-28T10:38:45;8.80;75.70
24011;DHT22;12217;50.792;4.372;2023-02-28T10:41:17;9.00;76.80
24011;DHT22;12217;50.792;4.372;2023-02-28T10:43:52;9.20;75.20
24011;DHT22;12217;50.792;4.372;2023-02-28T10:46:19;9.20;76.40
24011;DHT22;12217;50.792;4.372;2023-02-28T10:49:19;9.50;74.60
24011;DHT22;12217;50.792;4.372;2023-02-28T10:51:46;9.60;73.90
24011;DHT22;12217;50.792;4.372;2023-02-28T10:54:20;9.30;72.30
24011;DHT22;12217;50.792;4.372;2023-02-28T10:57:15;9.10;72.30
24011;DHT22;12217;50.792;4.372;2023-02-28T10:59:41;9.30;74.10
24011;DHT22;12217;50.792;4.372;2023-02-28T11:02:33;9.50;74.90
24011;DHT22;12217;50.792;4.372;2023-02-28T11:04:59;9.80;72.30
24011;DHT22;12217;50.792;4.372;2023-02-28T11:07:25;10.50;71.90
24011;DHT22;12217;50.792;4.372;2023-02-28T11:09:55;11.60;68.80
24011;DHT22;12217;50.792;4.372;2023-02-28T11:12:35;12.90;63.70
24011;DHT22;12217;50.792;4.372;2023-02-28T11:15:05;14.60;59.10
24011;DHT22;12217;50.792;4.372;2023-02-28T11:17:32;16.30;52.20
24011;DHT22;12217;50.792;4.372;2023-02-28T11:20:06;17.70;48.60
24011;DHT22;12217;50.792;4.372;2023-02-28T11:22:36;18.90;45.70
24011;DHT22;12217;50.792;4.372;2023-02-28T11:25:34;20.20;41.30
24011;DHT22;12217;50.792;4.372;2023-02-28T11:28:27;21.40;38.80
24011;DHT22;12217;50.792;4.372;2023-02-28T11:31:15;21.70;35.80
24011;DHT22;12217;50.792;4.372;2023-02-28T11:36:22;21.30;34.70
24011;DHT22;12217;50.792;4.372;2023-02-28T11:38:54;21.10;34.60
24011;DHT22;12217;50.792;4.372;2023-02-28T11:44:23;22.40;32.60
24011;DHT22;12217;50.792;4.372;2023-02-28T11:47:12;21.60;33.10
24011;DHT22;12217;50.792;4.372;2023-02-28T11:55:17;22.50;33.30
24011;DHT22;12217;50.792;4.372;2023-02-28T12:00:34;23.60;34.20
24011;DHT22;12217;50.792;4.372;2023-02-28T12:09:00;24.40;29.90
24011;DHT22;12217;50.792;4.372;2023-02-28T12:22:42;23.40;28.10
24011;DHT22;12217;50.792;4.372;2023-02-28T12:25:43;21.80;30.50
24011;DHT22;12217;50.792;4.372;2023-02-28T12:28:16;22.40;29.70
24011;DHT22;12217;50.792;4.372;2023-02-28T12:33:34;23.80;28.20
24011;DHT22;12217;50.792;4.372;2023-02-28T12:36:08;24.20;28.80
24011;DHT22;12217;50.792;4.372;2023-02-28T12:38:47;24.40;28.70
24011;DHT22;12217;50.792;4.372;2023-02-28T12:41:21;24.30;27.90
24011;DHT22;12217;50.792;4.372;2023-02-28T12:47:16;22.90;29.80
24011;DHT22;12217;50.792;4.372;2023-02-28T12:49:58;23.70;28.90
24011;DHT22;12217;50.792;4.372;2023-02-28T12:52:37;23.70;28.20
24011;DHT22;12217;50.792;4.372;2023-02-28T12:55:35;23.80;28.20
24011;DHT22;12217;50.792;4.372;2023-02-28T13:07:15;22.10;29.40
24011;DHT22;12217;50.792;4.372;2023-02-28T13:09:58;22.40;29.10
24011;DHT22;12217;50.792;4.372;2023-02-28T13:12:25;22.20;28.90
24011;DHT22;12217;50.792;4.372;2023-02-28T13:15:03;22.30;29.60
24011;DHT22;12217;50.792;4.372;2023-02-28T13:17:30;22.40;29.50
24011;DHT22;12217;50.792;4.372;2023-02-28T13:19:57;22.30;29.50
24011;DHT22;12217;50.792;4.372;2023-02-28T13:22:47;21.80;29.20
24011;DHT22;12217;50.792;4.372;2023-02-28T13:27:48;20.70;29.60
24011;DHT22;12217;50.792;4.372;2023-02-28T13:33:36;20.90;30.30
24011;DHT22;12217;50.792;4.372;2023-02-28T13:38:45;20.60;30.40
24011;DHT22;12217;50.792;4.372;2023-02-28T13:44:00;20.70;30.20
24011;DHT22;12217;50.792;4.372;2023-02-28T13:46:26;20.00;30.00
24011;DHT22;12217;50.792;4.372;2023-02-28T13:48:52;20.30;30.70
24011;DHT22;12217;50.792;4.372;2023-02-28T13:51:48;20.70;31.10
24011;DHT22;12217;50.792;4.372;2023-02-28T13:54:42;20.50;30.20
24011;DHT22;12217;50.792;4.372;2023-02-28T13:57:33;20.00;30.00
24011;DHT22;12217;50.792;4.372;2023-02-28T14:00:20;20.00;31.00
24011;DHT22;12217;50.792;4.372;2023-02-28T14:05:34;19.30;30.40
24011;DHT22;12217;50.792;4.372;2023-02-28T14:08:16;19.40;32.00
24011;DHT22;12217;50.792;4.372;2023-02-28T14:10:50;19.90;31.00
24011;DHT22;12217;50.792;4.372;2023-02-28T14:16:02;20.50;30.90
24011;DHT22;12217;50.792;4.372;2023-02-28T14:18:37;20.70;32.90
24011;DHT22;12217;50.792;4.372;2023-02-28T14:21:10;19.90;31.60
24011;DHT22;12217;50.792;4.372;2023-02-28T14:29:36;20.20;31.70
24011;DHT22;12217;50.792;4.372;2023-02-28T14:35:13;20.30;32.80
24011;DHT22;12217;50.792;4.372;2023-02-28T14:37:42;20.70;32.30
24011;DHT22;12217;50.792;4.372;2023-02-28T14:40:15;21.00;31.80
24011;DHT22;12217;50.792;4.372;2023-02-28T14:42:47;21.20;30.00
24011;DHT22;12217;50.792;4.372;2023-02-28T14:45:18;20.60;29.30
24011;DHT22;12217;50.792;4.372;2023-02-28T14:47:46;20.30;30.90
24011;DHT22;12217;50.792;4.372;2023-02-28T14:50:42;20.50;31.10
24011;DHT22;12217;50.792;4.372;2023-02-28T14:53:18;20.70;29.90
24011;DHT22;12217;50.792;4.372;2023-02-28T14:55:47;20.50;30.40
24011;DHT22;12217;50.792;4.372;2023-02-28T14:58:26;20.30;29.90
24011;DHT22;12217;50.792;4.372;2023-02-28T15:00:54;19.60;30.50
24011;DHT22;12217;50.792;4.372;2023-02-28T15:06:05;18.60;31.20
24011;DHT22;12217;50.792;4.372;2023-02-28T15:08:33;18.70;32.00
24011;DHT22;12217;50.792;4.372;2023-02-28T15:11:02;19.10;31.90
24011;DHT22;12217;50.792;4.372;2023-02-28T15:13:50;19.30;31.20
24011;DHT22;12217;50.792;4.372;2023-02-28T15:16:24;19.70;31.40
24011;DHT22;12217;50.792;4.372;2023-02-28T15:18:55;19.70;30.80
24011;DHT22;12217;50.792;4.372;2023-02-28T15:21:27;19.50;31.50
24011;DHT22;12217;50.792;4.372;2023-02-28T15:26:51;19.40;31.10
24011;DHT22;12217;50.792;4.372;2023-02-28T15:29:21;19.90;31.40
24011;DHT22;12217;50.792;4.372;2023-02-28T15:32:03;20.10;30.60
24011;DHT22;12217;50.792;4.372;2023-02-28T15:39:56;21.90;29.60
24011;DHT22;12217;50.792;4.372;2023-02-28T15:42:28;22.10;28.60
24011;DHT22;12217;50.792;4.372;2023-02-28T15:44:54;22.40;28.70
24011;DHT22;12217;50.792;4.372;2023-02-28T15:47:24;23.00;28.70
24011;DHT22;12217;50.792;4.372;2023-02-28T15:49:57;23.80;28.10
24011;DHT22;12217;50.792;4.372;2023-02-28T15:52:50;24.60;27.60
24011;DHT22;12217;50.792;4.372;2023-02-28T15:55:24;25.40;26.60
24011;DHT22;12217;50.792;4.372;2023-02-28T15:57:55;26.10;26.50
24011;DHT22;12217;50.792;4.372;2023-02-28T16:00:25;26.20;26.40
24011;DHT22;12217;50.792;4.372;2023-02-28T16:02:51;26.00;26.00
24011;DHT22;12217;50.792;4.372;2023-02-28T16:05:32;26.20;26.10
24011;DHT22;12217;50.792;4.372;2023-02-28T16:08:15;24.30;26.10
24011;DHT22;12217;50.792;4.372;2023-02-28T16:10:41;24.60;27.00
24011;DHT22;12217;50.792;4.372;2023-02-28T16:13:11;24.70;26.80
24011;DHT22;12217;50.792;4.372;2023-02-28T16:15:41;24.40;26.50
24011;DHT22;12217;50.792;4.372;2023-02-28T16:18:10;25.10;26.90
24011;DHT22;12217;50.792;4.372;2023-02-28T16:20:39;25.10;26.50
24011;DHT22;12217;50.792;4.372;2023-02-28T16:23:05;24.20;26.30
24011;DHT22;12217;50.792;4.372;2023-02-28T16:25:36;24.20;26.90
24011;DHT22;12217;50.792;4.372;2023-02-28T16:28:02;24.60;26.80
24011;DHT22;12217;50.792;4.372;2023-02-28T16:30:29;24.20;27.10
24011;DHT22;12217;50.792;4.372;2023-02-28T16:32:58;23.50;27.40
24011;DHT22;12217;50.792;4.372;2023-02-28T16:35:24;22.20;28.00
24011;DHT22;12217;50.792;4.372;2023-02-28T16:37:53;21.20;29.00
24011;DHT22;12217;50.792;4.372;2023-02-28T16:40:22;19.80;30.00
24011;DHT22;12217;50.792;4.372;2023-02-28T16:42:55;18.60;31.30
24011;DHT22;12217;50.792;4.372;2023-02-28T16:45:25;17.70;32.50
24011;DHT22;12217;50.792;4.372;2023-02-28T16:47:51;16.90;34.10
24011;DHT22;12217;50.792;4.372;2023-02-28T16:50:29;16.10;34.80
24011;DHT22;12217;50.792;4.372;2023-02-28T16:52:56;15.10;36.10
24011;DHT22;12217;50.792;4.372;2023-02-28T16:55:25;14.50;37.50
24011;DHT22;12217;50.792;4.372;2023-02-28T16:57:53;14.10;38.20
24011;DHT22;12217;50.792;4.372;2023-02-28T17:00:20;13.50;38.90
24011;DHT22;12217;50.792;4.372;2023-02-28T17:02:45;13.10;39.80
24011;DHT22;12217;50.792;4.372;2023-02-28T17:05:12;12.70;40.60
24011;DHT22;12217;50.792;4.372;2023-02-28T17:07:38;12.30;42.00
24011;DHT22;12217;50.792;4.372;2023-02-28T17:10:25;12.00;42.10
24011;DHT22;12217;50.792;4.372;2023-02-28T17:12:52;11.80;42.90
24011;DHT22;12217;50.792;4.372;2023-02-28T17:15:19;11.60;43.40
24011;DHT22;12217;50.792;4.372;2023-02-28T17:17:46;11.40;43.70
24011;DHT22;12217;50.792;4.372;2023-02-28T17:20:17;11.20;44.10
24011;DHT22;12217;50.792;4.372;2023-02-28T17:22:46;11.00;44.80
24011;DHT22;12217;50.792;4.372;2023-02-28T17:25:12;10.90;46.20
24011;DHT22;12217;50.792;4.372;2023-02-28T17:27:38;10.80;45.70
24011;DHT22;12217;50.792;4.372;2023-02-28T17:30:20;10.70;45.60
24011;DHT22;12217;50.792;4.372;2023-02-28T17:32:46;10.50;45.90
24011;DHT22;12217;50.792;4.372;2023-02-28T17:35:12;10.40;46.20
24011;DHT22;12217;50.792;4.372;2023-02-28T17:37:38;10.20;46.50
24011;DHT22;12217;50.792;4.372;2023-02-28T17:40:05;10.10;46.90
24011;DHT22;12217;50.792;4.372;2023-02-28T17:42:31;10.10;47.10
24011;DHT22;12217;50.792;4.372;2023-02-28T17:44:57;10.00;47.40
24011;DHT22;12217;50.792;4.372;2023-02-28T17:47:24;10.00;47.70
24011;DHT22;12217;50.792;4.372;2023-02-28T17:49:49;9.90;47.60